createdAt,value
2023-04-17T00:01:17.985Z,8.22
2023-04-17T00:04:22.167Z,8.20
2023-04-17T00:07:24.175Z,8.25
2023-04-17T00:10:25.838Z,8.27
2023-04-17T00:13:27.610Z,8.18
2023-04-17T00:16:29.512Z,8.10
2023-04-17T00:19:31.394Z,8.10
2023-04-17T00:22:33.996Z,8.13
2023-04-17T00:25:35.713Z,8.11
2023-04-17T00:28:37.344Z,8.07
2023-04-17T00:31:39.274Z,8.01
2023-04-17T00:34:41.544Z,7.97
2023-04-17T00:37:43.268Z,7.85
2023-04-17T00:40:45.889Z,7.75
2023-04-17T00:43:47.582Z,7.67
2023-04-17T00:46:49.500Z,7.62
2023-04-17T00:49:51.475Z,7.70
2023-04-17T00:52:53.918Z,7.60
2023-04-17T00:55:57.242Z,7.49
2023-04-17T00:59:00.335Z,7.45
2023-04-17T01:02:02.329Z,7.49
2023-04-17T01:05:04.722Z,7.40
2023-04-17T01:08:06.591Z,7.38
2023-04-17T01:11:09.449Z,7.37
2023-04-17T01:14:11.507Z,7.31
2023-04-17T01:17:19.667Z,7.30
2023-04-17T01:20:25.439Z,7.33
2023-04-17T01:23:28.915Z,7.36
2023-04-17T01:26:32.770Z,7.32
2023-04-17T01:29:35.480Z,7.25
2023-04-17T01:32:37.301Z,7.27
2023-04-17T01:35:39.128Z,7.29
2023-04-17T01:38:41.396Z,7.20
2023-04-17T01:41:43.233Z,7.23
2023-04-17T01:44:44.796Z,7.20
2023-04-17T01:47:47.287Z,7.18
2023-04-17T01:50:49.219Z,7.19
2023-04-17T01:53:50.906Z,7.14
2023-04-17T01:56:53.357Z,7.05
2023-04-17T01:59:56.756Z,7.01
2023-04-17T02:02:58.589Z,6.98
2023-04-17T02:06:00.408Z,6.96
2023-04-17T02:09:02.300Z,6.92
2023-04-17T02:12:04.166Z,6.88
2023-04-17T02:15:06.665Z,6.87
2023-04-17T02:18:09.450Z,6.85
2023-04-17T02:21:11.729Z,6.84
2023-04-17T02:24:13.526Z,6.86
2023-04-17T02:27:15.550Z,6.87
2023-04-17T02:30:18.559Z,6.84
2023-04-17T02:33:20.393Z,6.85
2023-04-17T02:36:22.922Z,6.79
2023-04-17T02:39:25.486Z,6.76
2023-04-17T02:42:27.163Z,6.80
2023-04-17T02:45:29.075Z,6.72
2023-04-17T02:48:30.867Z,6.71
2023-04-17T02:51:33.443Z,6.79
2023-04-17T02:54:35.225Z,6.79
2023-04-17T02:57:37.425Z,6.77
2023-04-17T03:00:40.031Z,6.72
2023-04-17T03:03:45.333Z,6.67
2023-04-17T03:06:49.506Z,6.69
2023-04-17T03:09:54.155Z,6.64
2023-04-17T03:12:56.055Z,6.60
2023-04-17T03:15:59.219Z,6.61
2023-04-17T03:19:03.299Z,6.64
2023-04-17T03:22:05.438Z,6.57
2023-04-17T03:25:07.916Z,6.58
2023-04-17T03:28:23.815Z,6.57
2023-04-17T03:31:27.447Z,6.55
2023-04-17T03:34:29.610Z,6.55
2023-04-17T03:37:32.302Z,6.54
2023-04-17T03:40:34.578Z,6.46
2023-04-17T03:43:36.326Z,6.43
2023-04-17T03:46:38.805Z,6.37
2023-04-17T03:49:40.771Z,6.36
2023-04-17T03:52:43.346Z,6.34
2023-04-17T03:55:45.055Z,6.34
2023-04-17T03:58:57.434Z,6.36
2023-04-17T04:01:59.494Z,6.37
2023-04-17T04:05:04.209Z,6.36
2023-04-17T04:08:06.088Z,6.33
2023-04-17T04:11:16.400Z,6.28
2023-04-17T04:14:18.340Z,6.25
2023-04-17T04:17:23.028Z,6.23
2023-04-17T04:20:24.675Z,6.20
2023-04-17T04:23:34.619Z,6.20
2023-04-17T04:26:38.056Z,6.19
2023-04-17T04:29:40.161Z,6.18
2023-04-17T04:32:47.350Z,6.14
2023-04-17T04:35:51.322Z,6.11
2023-04-17T04:38:53.290Z,6.09
2023-04-17T04:42:06.290Z,6.10
2023-04-17T04:45:21.316Z,6.11
2023-04-17T04:48:24.101Z,6.19
2023-04-17T04:51:26.811Z,6.12
2023-04-17T04:54:32.288Z,6.12
2023-04-17T04:57:36.496Z,6.22
2023-04-17T05:00:38.777Z,6.25
2023-04-17T05:03:40.962Z,6.27
2023-04-17T05:06:44.993Z,6.27
2023-04-17T05:09:47.784Z,6.33
2023-04-17T05:12:51.393Z,6.35
2023-04-17T05:15:53.809Z,6.41
2023-04-17T05:19:00.662Z,6.48
2023-04-17T05:22:40.888Z,6.52
2023-04-17T05:25:46.551Z,6.59
2023-04-17T05:28:49.507Z,6.66
2023-04-17T05:31:56.916Z,6.73
2023-04-17T05:35:17.402Z,6.76
2023-04-17T05:38:19.490Z,6.82
2023-04-17T05:41:21.595Z,6.90
2023-04-17T05:44:23.441Z,6.97
2023-04-17T05:47:25.408Z,7.04
2023-04-17T05:50:28.357Z,7.07
2023-04-17T05:53:31.345Z,7.19
2023-04-17T05:56:34.058Z,7.28
2023-04-17T05:59:37.325Z,7.37
2023-04-17T06:02:43.158Z,7.46
2023-04-17T06:05:50.685Z,7.54
2023-04-17T06:08:52.523Z,7.64
2023-04-17T06:11:56.621Z,7.77
2023-04-17T06:14:58.387Z,7.86
2023-04-17T06:18:00.885Z,7.86
2023-04-17T06:21:02.638Z,7.94
2023-04-17T06:24:04.567Z,8.01
2023-04-17T06:27:06.602Z,8.13
2023-04-17T06:30:09.033Z,8.27
2023-04-17T06:33:24.076Z,8.40
2023-04-17T06:36:28.523Z,8.49
2023-04-17T06:39:34.180Z,8.63
2023-04-17T06:42:36.402Z,8.75
2023-04-17T06:45:42.340Z,8.84
2023-04-17T06:48:44.176Z,8.95
2023-04-17T06:51:47.253Z,9.08
2023-04-17T06:54:48.948Z,9.12
2023-04-17T06:57:50.686Z,9.15
2023-04-17T07:00:52.392Z,9.21
2023-04-17T07:03:54.352Z,9.31
2023-04-17T07:06:56.495Z,9.30
2023-04-17T07:09:58.247Z,9.38
2023-04-17T07:13:00.031Z,9.45
2023-04-17T07:16:02.096Z,9.46
2023-04-17T07:19:04.039Z,9.43
2023-04-17T07:22:05.685Z,9.44
2023-04-17T07:25:08.133Z,9.42
2023-04-17T07:28:10.331Z,9.35
2023-04-17T07:31:12.250Z,9.23
2023-04-17T07:34:13.954Z,9.20
2023-04-17T07:37:15.900Z,9.22
2023-04-17T07:40:18.198Z,9.22
2023-04-17T07:43:19.955Z,9.21
2023-04-17T07:46:21.775Z,9.10
2023-04-17T07:49:23.557Z,9.17
2023-04-17T07:52:25.489Z,9.11
2023-04-17T07:55:27.392Z,9.02
2023-04-17T07:58:29.071Z,9.03
2023-04-17T08:01:32.033Z,9.03
2023-04-17T08:04:35.043Z,9.03
2023-04-17T08:07:37.784Z,9.02
2023-04-17T08:10:39.512Z,9.10
2023-04-17T08:13:41.439Z,9.16
2023-04-17T08:16:43.429Z,9.12
2023-04-17T08:19:45.497Z,9.10
2023-04-17T08:22:47.223Z,9.09
2023-04-17T08:25:48.942Z,9.12
2023-04-17T08:28:50.720Z,9.30
2023-04-17T08:32:00.286Z,9.37
2023-04-17T08:35:14.291Z,9.47
2023-04-17T08:38:15.918Z,9.55
2023-04-17T08:41:22.040Z,9.58
2023-04-17T08:44:25.231Z,9.61
2023-04-17T08:47:27.459Z,9.71
2023-04-17T08:50:29.417Z,9.88
2023-04-17T08:53:32.051Z,10.07
2023-04-17T08:56:34.748Z,10.33
2023-04-17T08:59:36.428Z,10.27
2023-04-17T09:02:57.914Z,10.22
2023-04-17T09:05:59.773Z,10.26
2023-04-17T09:09:02.220Z,10.43
2023-04-17T09:12:11.212Z,10.53
2023-04-17T09:15:16.473Z,10.60
2023-04-17T09:18:35.580Z,10.75
2023-04-17T09:21:37.316Z,10.96
2023-04-17T09:24:39.220Z,11.08
2023-04-17T09:27:41.140Z,11.17
2023-04-17T09:30:43.282Z,11.27
2023-04-17T09:33:58.785Z,11.55
2023-04-17T09:37:01.022Z,11.85
2023-04-17T09:40:09.230Z,12.02
2023-04-17T09:43:11.321Z,12.21
2023-04-17T09:46:14.457Z,12.50
2023-04-17T09:49:25.693Z,12.83
2023-04-17T09:52:28.615Z,13.13
2023-04-17T09:55:37.961Z,13.28
2023-04-17T09:58:41.494Z,13.44
2023-04-17T10:01:43.841Z,13.54
2023-04-17T10:04:47.007Z,13.68
2023-04-17T10:07:48.800Z,13.71
2023-04-17T10:10:52.284Z,13.90
2023-04-17T10:14:06.341Z,14.30
2023-04-17T10:17:34.895Z,14.71
2023-04-17T10:20:38.888Z,14.93
2023-04-17T10:23:40.603Z,15.06
2023-04-17T10:26:42.487Z,14.92
2023-04-17T10:29:53.349Z,15.25
2023-04-17T10:33:19.959Z,15.33
2023-04-17T10:36:37.679Z,15.18
2023-04-17T10:40:09.105Z,14.79
2023-04-17T10:43:26.598Z,14.69
2023-04-17T10:46:30.018Z,14.38
2023-04-17T10:49:58.695Z,14.34
2023-04-17T10:53:00.436Z,14.50
2023-04-17T10:56:03.426Z,14.76
2023-04-17T10:59:07.266Z,14.93
2023-04-17T11:02:09.304Z,15.07
2023-04-17T11:05:12.126Z,15.11
2023-04-17T11:08:14.445Z,15.15
2023-04-17T11:11:23.535Z,15.17
2023-04-17T11:14:40.393Z,15.34
2023-04-17T11:17:48.717Z,15.67
2023-04-17T11:20:50.433Z,15.72
2023-04-17T11:23:52.601Z,15.84
2023-04-17T11:26:56.297Z,15.92
2023-04-17T11:29:58.108Z,15.68
2023-04-17T11:33:02.955Z,15.63
2023-04-17T11:36:06.470Z,15.32
2023-04-17T11:39:08.758Z,15.48
2023-04-17T11:42:11.018Z,15.63
2023-04-17T11:45:12.908Z,15.76
2023-04-17T11:48:16.127Z,15.85
2023-04-17T11:51:18.525Z,15.80
2023-04-17T11:54:50.826Z,16.04
2023-04-17T11:57:54.509Z,16.35
2023-04-17T12:01:06.882Z,15.90
2023-04-17T12:04:21.250Z,16.30
2023-04-17T12:07:24.815Z,16.71
2023-04-17T12:10:45.554Z,16.85
2023-04-17T12:13:47.153Z,16.87
2023-04-17T12:16:50.739Z,16.79
2023-04-17T12:19:53.247Z,16.07
2023-04-17T12:22:54.912Z,16.01
2023-04-17T12:25:56.794Z,16.06
2023-04-17T12:28:59.108Z,16.37
2023-04-17T12:32:01.935Z,16.78
2023-04-17T12:35:03.808Z,16.94
2023-04-17T12:38:05.660Z,16.87
2023-04-17T12:41:07.694Z,16.64
2023-04-17T12:44:09.776Z,16.44
2023-04-17T12:47:11.954Z,16.23
2023-04-17T12:50:14.199Z,16.68
2023-04-17T12:53:16.128Z,17.11
2023-04-17T12:56:18.035Z,17.19
2023-04-17T12:59:19.862Z,16.89
2023-04-17T13:02:23.648Z,16.29
2023-04-17T13:05:26.530Z,16.31
2023-04-17T13:08:30.426Z,16.92
2023-04-17T13:11:32.595Z,17.50
2023-04-17T13:14:34.520Z,18.06
2023-04-17T13:17:36.441Z,18.49
2023-04-17T13:20:38.529Z,18.60
2023-04-17T13:23:40.375Z,18.71
2023-04-17T13:26:42.902Z,18.80
2023-04-17T13:29:44.900Z,18.59
2023-04-17T13:32:47.157Z,17.97
2023-04-17T13:35:51.127Z,17.50
2023-04-17T13:38:53.347Z,16.88
2023-04-17T13:41:57.350Z,16.44
2023-04-17T13:44:59.084Z,16.46
2023-04-17T13:48:01.079Z,17.14
2023-04-17T13:51:03.285Z,17.26
2023-04-17T13:54:05.461Z,17.63
2023-04-17T13:57:08.199Z,17.98
2023-04-17T14:00:10.890Z,18.30
2023-04-17T14:03:13.156Z,18.61
2023-04-17T14:06:17.875Z,18.69
2023-04-17T14:09:20.194Z,18.25
2023-04-17T14:12:22.174Z,18.15
2023-04-17T14:15:24.110Z,18.52
2023-04-17T14:18:26.169Z,18.07
2023-04-17T14:21:28.051Z,17.46
2023-04-17T14:24:32.066Z,17.00
2023-04-17T14:27:36.543Z,17.34
2023-04-17T14:30:38.673Z,18.07
2023-04-17T14:33:41.545Z,18.89
2023-04-17T14:36:43.746Z,19.51
2023-04-17T14:39:45.619Z,19.64
2023-04-17T14:42:54.138Z,18.97
2023-04-17T14:45:56.773Z,18.10
2023-04-17T14:49:04.849Z,17.45
2023-04-17T14:52:06.894Z,16.85
2023-04-17T14:55:09.435Z,16.49
2023-04-17T14:58:11.328Z,16.75
2023-04-17T15:01:13.387Z,17.41
2023-04-17T15:04:15.835Z,17.99
2023-04-17T15:07:17.727Z,18.11
2023-04-17T15:10:19.970Z,17.91
2023-04-17T15:13:21.663Z,17.61
2023-04-17T15:16:23.576Z,16.97
2023-04-17T15:19:25.403Z,16.68
2023-04-17T15:22:27.564Z,16.48
2023-04-17T15:25:29.369Z,16.44
2023-04-17T15:28:31.178Z,16.42
2023-04-17T15:31:32.817Z,16.72
2023-04-17T15:34:35.201Z,16.82
2023-04-17T15:37:40.397Z,16.92
2023-04-17T15:40:42.198Z,16.99
2023-04-17T15:43:44.319Z,17.15
2023-04-17T15:46:46.585Z,17.33
2023-04-17T15:49:48.421Z,17.50
2023-04-17T15:52:50.182Z,17.57
2023-04-17T15:55:52.786Z,17.64
2023-04-17T15:58:54.816Z,17.73
2023-04-17T16:01:56.827Z,17.39
2023-04-17T16:05:00.018Z,17.04
2023-04-17T16:08:02.936Z,16.70
2023-04-17T16:11:05.060Z,16.24
2023-04-17T16:14:07.105Z,16.07
2023-04-17T16:17:08.862Z,16.38
2023-04-17T16:20:11.372Z,16.61
2023-04-17T16:23:13.363Z,16.77
2023-04-17T16:26:15.478Z,16.94
2023-04-17T16:29:17.251Z,17.07
2023-04-17T16:32:20.622Z,17.08
2023-04-17T16:35:22.651Z,17.19
2023-04-17T16:38:24.585Z,17.17
2023-04-17T16:41:26.413Z,17.00
2023-04-17T16:44:28.580Z,16.85
2023-04-17T16:47:30.879Z,16.62
2023-04-17T16:50:32.920Z,16.48
2023-04-17T16:53:34.994Z,16.44
2023-04-17T16:56:37.739Z,16.36
2023-04-17T16:59:39.639Z,16.25
2023-04-17T17:02:41.808Z,16.32
2023-04-17T17:05:43.903Z,16.28
2023-04-17T17:08:46.922Z,16.20
2023-04-17T17:11:49.148Z,16.15
2023-04-17T17:14:50.867Z,16.06
2023-04-17T17:17:52.732Z,15.99
2023-04-17T17:20:56.141Z,15.86
2023-04-17T17:23:58.629Z,15.55
2023-04-17T17:27:00.632Z,15.25
2023-04-17T17:30:03.390Z,15.02
2023-04-17T17:33:05.393Z,14.86
2023-04-17T17:36:09.019Z,14.65
2023-04-17T17:39:11.316Z,14.43
2023-04-17T17:42:13.421Z,14.28
2023-04-17T17:45:15.297Z,14.19
2023-04-17T17:48:18.192Z,14.09
2023-04-17T17:51:22.309Z,13.93
2023-04-17T17:54:24.153Z,13.87
2023-04-17T17:57:29.191Z,13.84
2023-04-17T18:00:37.525Z,13.76
2023-04-17T18:03:39.402Z,13.66
2023-04-17T18:06:41.142Z,13.46
2023-04-17T18:09:42.764Z,13.22
2023-04-17T18:12:44.394Z,12.88
2023-04-17T18:15:46.365Z,12.44
2023-04-17T18:18:48.052Z,12.17
2023-04-17T18:21:50.030Z,11.80
2023-04-17T18:24:54.955Z,11.60
2023-04-17T18:27:56.850Z,11.40
2023-04-17T18:30:58.727Z,11.19
2023-04-17T18:34:02.680Z,11.05
2023-04-17T18:37:04.672Z,10.78
2023-04-17T18:40:07.851Z,10.65
2023-04-17T18:43:10.230Z,10.51
2023-04-17T18:46:12.107Z,10.43
2023-04-17T18:49:13.950Z,10.33
2023-04-17T18:52:15.557Z,10.06
2023-04-17T18:55:17.769Z,9.90
2023-04-17T18:58:19.582Z,9.79
2023-04-17T19:01:21.518Z,9.72
2023-04-17T19:04:23.329Z,9.62
2023-04-17T19:07:25.214Z,9.51
2023-04-17T19:10:27.262Z,9.45
2023-04-17T19:13:28.995Z,9.35
2023-04-17T19:16:30.889Z,9.27
2023-04-17T19:19:32.570Z,9.08
2023-04-17T19:22:34.393Z,9.00
2023-04-17T19:25:38.760Z,8.87
2023-04-17T19:28:40.439Z,8.66
2023-04-17T19:31:42.241Z,8.67
2023-04-17T19:34:44.568Z,8.55
2023-04-17T19:37:46.332Z,8.41
2023-04-17T19:41:20.902Z,8.31
2023-04-17T19:44:22.856Z,8.33
2023-04-17T19:47:24.689Z,8.20
2023-04-17T19:50:29.701Z,8.08
2023-04-17T19:53:32.306Z,7.95
2023-04-17T19:56:34.198Z,7.84
2023-04-17T19:59:35.853Z,7.75
2023-04-17T20:02:37.828Z,7.70
2023-04-17T20:05:39.610Z,7.65
2023-04-17T20:08:41.390Z,7.65
2023-04-17T20:11:43.091Z,7.55
2023-04-17T20:14:46.251Z,7.55
2023-04-17T20:17:48.191Z,7.49
2023-04-17T20:20:50.015Z,7.44
2023-04-17T20:23:52.651Z,7.48
2023-04-17T20:26:54.452Z,7.61
2023-04-17T20:29:56.192Z,7.75
2023-04-17T20:32:57.953Z,7.96
2023-04-17T20:35:59.649Z,8.01
2023-04-17T20:39:01.595Z,8.09
2023-04-17T20:42:03.488Z,8.17
2023-04-17T20:45:07.729Z,8.20
2023-04-17T20:48:10.546Z,8.27
2023-04-17T20:51:12.489Z,8.30
2023-04-17T20:54:14.510Z,8.35
2023-04-17T20:57:16.501Z,8.33
2023-04-17T21:00:18.203Z,8.37
2023-04-17T21:03:20.157Z,8.41
2023-04-17T21:06:22.942Z,8.39
2023-04-17T21:09:27.796Z,8.47
2023-04-17T21:12:29.593Z,8.43
2023-04-17T21:15:32.554Z,8.43
2023-04-17T21:18:34.224Z,8.45
2023-04-17T21:21:36.207Z,8.43
2023-04-17T21:24:37.991Z,8.47
2023-04-17T21:27:41.039Z,8.46
2023-04-17T21:30:42.760Z,8.48
2023-04-17T21:33:44.433Z,8.53
2023-04-17T21:36:46.252Z,8.51
2023-04-17T21:39:48.520Z,8.50
2023-04-17T21:42:50.152Z,8.44
2023-04-17T21:45:51.968Z,8.45
2023-04-17T21:48:54.460Z,8.50
2023-04-17T21:51:57.032Z,8.54
2023-04-17T21:55:03.370Z,8.54
2023-04-17T21:58:05.193Z,8.41
2023-04-17T22:01:06.920Z,8.39
2023-04-17T22:04:08.829Z,8.41
2023-04-17T22:07:10.914Z,8.32
2023-04-17T22:10:12.723Z,8.37
2023-04-17T22:13:20.595Z,8.31
2023-04-17T22:16:22.431Z,8.30
2023-04-17T22:19:24.397Z,8.32
2023-04-17T22:22:26.158Z,8.44
2023-04-17T22:25:27.875Z,8.31
2023-04-17T22:28:31.210Z,8.31
2023-04-17T22:31:33.757Z,8.31
2023-04-17T22:34:35.569Z,8.32
2023-04-17T22:37:37.408Z,8.41
2023-04-17T22:40:40.151Z,8.26
2023-04-17T22:43:41.791Z,8.25
2023-04-17T22:46:43.610Z,8.36
2023-04-17T22:49:45.512Z,8.32
2023-04-17T22:52:47.164Z,8.31
2023-04-17T22:56:00.220Z,8.29
2023-04-17T22:59:01.926Z,8.22
2023-04-17T23:02:04.426Z,8.25
2023-04-17T23:05:07.097Z,8.23
2023-04-17T23:08:09.043Z,8.25
2023-04-17T23:11:11.807Z,8.20
2023-04-17T23:14:13.654Z,8.16
2023-04-17T23:17:15.806Z,8.13
2023-04-17T23:20:17.708Z,8.12
2023-04-17T23:23:19.666Z,8.06
2023-04-17T23:26:21.417Z,8.05
2023-04-17T23:29:23.768Z,8.08
2023-04-17T23:32:25.439Z,8.04
2023-04-17T23:35:27.463Z,7.98
2023-04-17T23:38:29.292Z,8.02
2023-04-17T23:41:33.753Z,8.03
2023-04-17T23:44:35.796Z,8.02
2023-04-17T23:47:37.701Z,8.01
2023-04-17T23:50:39.419Z,8.03
2023-04-17T23:53:41.192Z,7.95
2023-04-17T23:56:45.984Z,8.02
2023-04-17T23:59:47.686Z,7.90
